sensor_id;sensor_type;location;lat;lon;timestamp;P1;durP1;ratioP1;P2;durP2;ratioP2
20954;SDS011;10636;19.390;-99.256;2022-08-27T00:01:25;4.28;;;3.00;;
20954;SDS011;10636;19.390;-99.256;2022-08-27T00:03:54;3.58;;;3.28;;
20954;SDS011;10636;19.390;-99.256;2022-08-27T00:06:23;3.60;;;3.30;;
20954;SDS011;10636;19.390;-99.256;2022-08-27T00:08:53;4.30;;;3.20;;
20954;SDS011;10636;19.390;-99.256;2022-08-27T00:11:23;3.58;;;3.25;;
20954;SDS011;10636;19.390;-99.256;2022-08-27T00:13:51;4.22;;;3.55;;
20954;SDS011;10636;19.390;-99.256;2022-08-27T00:16:21;5.43;;;4.30;;
20954;SDS011;10636;19.390;-99.256;2022-08-27T00:18:52;4.70;;;4.10;;
20954;SDS011;10636;19.390;-99.256;2022-08-27T00:21:21;4.78;;;4.20;;
20954;SDS011;10636;19.390;-99.256;2022-08-27T00:23:49;4.15;;;3.75;;
20954;SDS011;10636;19.390;-99.256;2022-08-27T00:26:18;5.32;;;3.90;;
20954;SDS011;10636;19.390;-99.256;2022-08-27T00:28:46;4.82;;;3.50;;
20954;SDS011;10636;19.390;-99.256;2022-08-27T00:31:15;3.95;;;3.55;;
20954;SDS011;10636;19.390;-99.256;2022-08-27T00:33:43;3.97;;;3.33;;
20954;SDS011;10636;19.390;-99.256;2022-08-27T00:36:14;3.90;;;3.60;;
20954;SDS011;10636;19.390;-99.256;2022-08-27T00:38:42;4.45;;;3.95;;
20954;SDS011;10636;19.390;-99.256;2022-08-27T00:41:10;4.32;;;3.88;;
20954;SDS011;10636;19.390;-99.256;2022-08-27T00:43:43;4.38;;;3.70;;
20954;SDS011;10636;19.390;-99.256;2022-08-27T00:46:15;4.00;;;3.60;;
20954;SDS011;10636;19.390;-99.256;2022-08-27T00:48:48;5.03;;;3.60;;
20954;SDS011;10636;19.390;-99.256;2022-08-27T00:51:22;4.18;;;3.78;;
20954;SDS011;10636;19.390;-99.256;2022-08-27T00:53:52;3.53;;;3.22;;
20954;SDS011;10636;19.390;-99.256;2022-08-27T00:56:22;4.00;;;3.60;;
20954;SDS011;10636;19.390;-99.256;2022-08-27T00:58:53;4.90;;;4.40;;
20954;SDS011;10636;19.390;-99.256;2022-08-27T01:01:24;4.60;;;4.20;;
20954;SDS011;10636;19.390;-99.256;2022-08-27T01:03:56;4.10;;;3.70;;
20954;SDS011;10636;19.390;-99.256;2022-08-27T01:06:30;4.22;;;3.92;;
20954;SDS011;10636;19.390;-99.256;2022-08-27T01:09:03;4.50;;;4.10;;
20954;SDS011;10636;19.390;-99.256;2022-08-27T01:11:34;4.10;;;3.70;;
20954;SDS011;10636;19.390;-99.256;2022-08-27T01:14:03;4.32;;;3.92;;
20954;SDS011;10636;19.390;-99.256;2022-08-27T01:16:34;4.32;;;3.92;;
20954;SDS011;10636;19.390;-99.256;2022-08-27T01:19:05;5.10;;;4.35;;
20954;SDS011;10636;19.390;-99.256;2022-08-27T01:21:40;4.65;;;4.22;;
20954;SDS011;10636;19.390;-99.256;2022-08-27T01:24:22;4.40;;;4.10;;
20954;SDS011;10636;19.390;-99.256;2022-08-27T01:26:57;4.10;;;3.80;;
20954;SDS011;10636;19.390;-99.256;2022-08-27T01:29:27;5.05;;;4.20;;
20954;SDS011;10636;19.390;-99.256;2022-08-27T01:31:58;4.57;;;4.15;;
20954;SDS011;10636;19.390;-99.256;2022-08-27T01:34:32;4.95;;;4.50;;
20954;SDS011;10636;19.390;-99.256;2022-08-27T01:37:01;4.80;;;4.40;;
20954;SDS011;10636;19.390;-99.256;2022-08-27T01:39:33;6.25;;;5.85;;
20954;SDS011;10636;19.390;-99.256;2022-08-27T01:42:04;6.15;;;5.65;;
20954;SDS011;10636;19.390;-99.256;2022-08-27T01:44:42;16.63;;;15.13;;
20954;SDS011;10636;19.390;-99.256;2022-08-27T01:47:12;18.35;;;16.75;;
20954;SDS011;10636;19.390;-99.256;2022-08-27T01:49:41;13.50;;;12.40;;
20954;SDS011;10636;19.390;-99.256;2022-08-27T01:52:10;12.00;;;10.82;;
20954;SDS011;10636;19.390;-99.256;2022-08-27T01:54:41;11.15;;;10.00;;
20954;SDS011;10636;19.390;-99.256;2022-08-27T01:57:09;10.38;;;9.40;;
20954;SDS011;10636;19.390;-99.256;2022-08-27T01:59:38;10.20;;;9.20;;
20954;SDS011;10636;19.390;-99.256;2022-08-27T02:02:06;9.13;;;8.32;;
20954;SDS011;10636;19.390;-99.256;2022-08-27T02:04:36;8.85;;;8.13;;
20954;SDS011;10636;19.390;-99.256;2022-08-27T02:07:05;8.63;;;7.72;;
20954;SDS011;10636;19.390;-99.256;2022-08-27T02:09:34;8.35;;;7.63;;
20954;SDS011;10636;19.390;-99.256;2022-08-27T02:12:04;8.85;;;8.13;;
20954;SDS011;10636;19.390;-99.256;2022-08-27T02:14:33;25.05;;;17.48;;
20954;SDS011;10636;19.390;-99.256;2022-08-27T02:17:01;28.10;;;23.52;;
20954;SDS011;10636;19.390;-99.256;2022-08-27T02:19:30;37.80;;;33.72;;
20954;SDS011;10636;19.390;-99.256;2022-08-27T02:21:58;31.27;;;27.98;;
20954;SDS011;10636;19.390;-99.256;2022-08-27T02:24:27;36.10;;;32.05;;
20954;SDS011;10636;19.390;-99.256;2022-08-27T02:26:55;32.67;;;29.17;;
20954;SDS011;10636;19.390;-99.256;2022-08-27T02:29:25;45.42;;;38.10;;
20954;SDS011;10636;19.390;-99.256;2022-08-27T02:31:54;40.70;;;35.67;;
20954;SDS011;10636;19.390;-99.256;2022-08-27T02:34:22;32.83;;;29.05;;
20954;SDS011;10636;19.390;-99.256;2022-08-27T02:36:51;26.25;;;20.42;;
20954;SDS011;10636;19.390;-99.256;2022-08-27T02:39:19;19.40;;;17.50;;
20954;SDS011;10636;19.390;-99.256;2022-08-27T02:41:48;16.45;;;14.68;;
20954;SDS011;10636;19.390;-99.256;2022-08-27T02:44:17;14.05;;;12.43;;
20954;SDS011;10636;19.390;-99.256;2022-08-27T02:46:47;13.15;;;11.43;;
20954;SDS011;10636;19.390;-99.256;2022-08-27T02:49:15;11.25;;;10.20;;
20954;SDS011;10636;19.390;-99.256;2022-08-27T02:51:44;9.57;;;8.60;;
20954;SDS011;10636;19.390;-99.256;2022-08-27T02:54:12;8.98;;;7.68;;
20954;SDS011;10636;19.390;-99.256;2022-08-27T02:56:40;8.70;;;7.20;;
20954;SDS011;10636;19.390;-99.256;2022-08-27T02:59:09;7.65;;;6.50;;
20954;SDS011;10636;19.390;-99.256;2022-08-27T03:01:37;6.38;;;5.78;;
20954;SDS011;10636;19.390;-99.256;2022-08-27T03:04:07;7.28;;;6.18;;
20954;SDS011;10636;19.390;-99.256;2022-08-27T03:06:36;6.95;;;6.25;;
20954;SDS011;10636;19.390;-99.256;2022-08-27T03:09:04;6.25;;;5.55;;
20954;SDS011;10636;19.390;-99.256;2022-08-27T03:11:34;6.22;;;5.63;;
20954;SDS011;10636;19.390;-99.256;2022-08-27T03:14:03;6.22;;;5.63;;
20954;SDS011;10636;19.390;-99.256;2022-08-27T03:16:32;6.00;;;5.40;;
20954;SDS011;10636;19.390;-99.256;2022-08-27T03:19:01;6.38;;;5.05;;
20954;SDS011;10636;19.390;-99.256;2022-08-27T03:21:33;6.38;;;5.38;;
20954;SDS011;10636;19.390;-99.256;2022-08-27T03:24:02;5.95;;;5.45;;
20954;SDS011;10636;19.390;-99.256;2022-08-27T03:26:31;5.95;;;4.88;;
20954;SDS011;10636;19.390;-99.256;2022-08-27T03:28:59;5.70;;;5.20;;
20954;SDS011;10636;19.390;-99.256;2022-08-27T03:31:28;5.38;;;4.70;;
20954;SDS011;10636;19.390;-99.256;2022-08-27T03:33:57;6.28;;;5.05;;
20954;SDS011;10636;19.390;-99.256;2022-08-27T03:36:27;5.32;;;4.93;;
20954;SDS011;10636;19.390;-99.256;2022-08-27T03:38:58;5.32;;;4.93;;
20954;SDS011;10636;19.390;-99.256;2022-08-27T03:41:26;5.10;;;4.60;;
20954;SDS011;10636;19.390;-99.256;2022-08-27T03:43:55;5.00;;;4.60;;
20954;SDS011;10636;19.390;-99.256;2022-08-27T03:46:23;5.55;;;4.75;;
20954;SDS011;10636;19.390;-99.256;2022-08-27T03:48:55;4.75;;;4.28;;
20954;SDS011;10636;19.390;-99.256;2022-08-27T03:51:23;4.93;;;4.43;;
20954;SDS011;10636;19.390;-99.256;2022-08-27T03:53:52;4.28;;;3.90;;
20954;SDS011;10636;19.390;-99.256;2022-08-27T03:56:22;5.13;;;4.28;;
20954;SDS011;10636;19.390;-99.256;2022-08-27T03:58:50;5.22;;;4.72;;
20954;SDS011;10636;19.390;-99.256;2022-08-27T04:01:19;4.53;;;4.20;;
20954;SDS011;10636;19.390;-99.256;2022-08-27T04:03:47;4.55;;;4.15;;
20954;SDS011;10636;19.390;-99.256;2022-08-27T04:06:16;4.63;;;4.20;;
20954;SDS011;10636;19.390;-99.256;2022-08-27T04:08:45;4.75;;;4.35;;
20954;SDS011;10636;19.390;-99.256;2022-08-27T04:11:13;5.45;;;4.35;;
20954;SDS011;10636;19.390;-99.256;2022-08-27T04:13:43;4.80;;;4.40;;
20954;SDS011;10636;19.390;-99.256;2022-08-27T04:16:12;5.05;;;4.57;;
20954;SDS011;10636;19.390;-99.256;2022-08-27T04:18:40;4.78;;;4.28;;
20954;SDS011;10636;19.390;-99.256;2022-08-27T04:21:09;4.60;;;4.20;;
20954;SDS011;10636;19.390;-99.256;2022-08-27T04:23:39;4.93;;;4.53;;
20954;SDS011;10636;19.390;-99.256;2022-08-27T04:26:09;4.80;;;4.30;;
20954;SDS011;10636;19.390;-99.256;2022-08-27T04:28:39;5.00;;;4.60;;
20954;SDS011;10636;19.390;-99.256;2022-08-27T04:31:09;4.93;;;4.43;;
20954;SDS011;10636;19.390;-99.256;2022-08-27T04:33:41;4.68;;;4.28;;
20954;SDS011;10636;19.390;-99.256;2022-08-27T04:36:10;4.80;;;4.40;;
20954;SDS011;10636;19.390;-99.256;2022-08-27T04:38:38;5.00;;;4.60;;
20954;SDS011;10636;19.390;-99.256;2022-08-27T04:41:07;4.53;;;4.22;;
20954;SDS011;10636;19.390;-99.256;2022-08-27T04:43:46;5.00;;;4.60;;
20954;SDS011;10636;19.390;-99.256;2022-08-27T04:46:21;4.78;;;4.38;;
20954;SDS011;10636;19.390;-99.256;2022-08-27T04:48:51;5.22;;;4.72;;
20954;SDS011;10636;19.390;-99.256;2022-08-27T04:51:19;5.07;;;4.68;;
20954;SDS011;10636;19.390;-99.256;2022-08-27T04:53:48;4.82;;;4.43;;
20954;SDS011;10636;19.390;-99.256;2022-08-27T04:56:17;5.05;;;4.65;;
20954;SDS011;10636;19.390;-99.256;2022-08-27T04:58:48;5.00;;;4.60;;
20954;SDS011;10636;19.390;-99.256;2022-08-27T05:01:17;5.25;;;4.85;;
20954;SDS011;10636;19.390;-99.256;2022-08-27T05:03:50;5.22;;;4.72;;
20954;SDS011;10636;19.390;-99.256;2022-08-27T05:06:20;5.20;;;4.75;;
20954;SDS011;10636;19.390;-99.256;2022-08-27T05:08:49;5.10;;;4.70;;
20954;SDS011;10636;19.390;-99.256;2022-08-27T05:11:18;4.90;;;4.50;;
20954;SDS011;10636;19.390;-99.256;2022-08-27T05:13:47;5.18;;;4.78;;
20954;SDS011;10636;19.390;-99.256;2022-08-27T05:16:16;5.45;;;4.95;;
20954;SDS011;10636;19.390;-99.256;2022-08-27T05:18:47;5.00;;;4.50;;
20954;SDS011;10636;19.390;-99.256;2022-08-27T05:21:19;5.28;;;4.88;;
20954;SDS011;10636;19.390;-99.256;2022-08-27T05:23:51;4.93;;;4.53;;
20954;SDS011;10636;19.390;-99.256;2022-08-27T05:26:20;5.40;;;4.90;;
20954;SDS011;10636;19.390;-99.256;2022-08-27T05:28:49;5.85;;;5.28;;
20954;SDS011;10636;19.390;-99.256;2022-08-27T05:31:18;4.85;;;4.45;;
20954;SDS011;10636;19.390;-99.256;2022-08-27T05:33:47;4.90;;;4.50;;
20954;SDS011;10636;19.390;-99.256;2022-08-27T05:36:19;5.05;;;4.65;;
20954;SDS011;10636;19.390;-99.256;2022-08-27T05:38:50;5.10;;;4.70;;
20954;SDS011;10636;19.390;-99.256;2022-08-27T05:41:20;5.05;;;4.55;;
20954;SDS011;10636;19.390;-99.256;2022-08-27T05:43:52;5.03;;;4.65;;
20954;SDS011;10636;19.390;-99.256;2022-08-27T05:46:21;5.22;;;4.82;;
20954;SDS011;10636;19.390;-99.256;2022-08-27T05:48:56;5.40;;;4.97;;
20954;SDS011;10636;19.390;-99.256;2022-08-27T05:51:27;5.43;;;4.93;;
20954;SDS011;10636;19.390;-99.256;2022-08-27T05:53:58;5.30;;;4.80;;
20954;SDS011;10636;19.390;-99.256;2022-08-27T05:56:28;5.53;;;5.03;;
20954;SDS011;10636;19.390;-99.256;2022-08-27T05:58:59;5.55;;;5.07;;
20954;SDS011;10636;19.390;-99.256;2022-08-27T06:01:45;5.45;;;5.05;;
20954;SDS011;10636;19.390;-99.256;2022-08-27T06:04:17;5.65;;;5.03;;
20954;SDS011;10636;19.390;-99.256;2022-08-27T06:06:47;5.35;;;4.95;;
20954;SDS011;10636;19.390;-99.256;2022-08-27T06:09:16;5.28;;;4.78;;
20954;SDS011;10636;19.390;-99.256;2022-08-27T06:11:46;5.68;;;5.20;;
20954;SDS011;10636;19.390;-99.256;2022-08-27T06:14:15;5.45;;;4.95;;
20954;SDS011;10636;19.390;-99.256;2022-08-27T06:16:43;5.65;;;5.15;;
20954;SDS011;10636;19.390;-99.256;2022-08-27T06:19:12;5.65;;;5.05;;
20954;SDS011;10636;19.390;-99.256;2022-08-27T06:21:43;5.38;;;4.88;;
20954;SDS011;10636;19.390;-99.256;2022-08-27T06:24:12;5.63;;;4.80;;
20954;SDS011;10636;19.390;-99.256;2022-08-27T06:26:41;5.15;;;4.65;;
20954;SDS011;10636;19.390;-99.256;2022-08-27T06:29:11;4.97;;;4.57;;
20954;SDS011;10636;19.390;-99.256;2022-08-27T06:31:40;5.30;;;4.80;;
20954;SDS011;10636;19.390;-99.256;2022-08-27T06:34:09;5.40;;;4.85;;
20954;SDS011;10636;19.390;-99.256;2022-08-27T06:36:38;5.30;;;4.90;;
20954;SDS011;10636;19.390;-99.256;2022-08-27T06:39:09;5.78;;;5.03;;
20954;SDS011;10636;19.390;-99.256;2022-08-27T06:41:40;5.63;;;5.13;;
20954;SDS011;10636;19.390;-99.256;2022-08-27T06:44:09;5.30;;;4.80;;
20954;SDS011;10636;19.390;-99.256;2022-08-27T06:46:39;5.50;;;5.00;;
20954;SDS011;10636;19.390;-99.256;2022-08-27T06:49:08;5.35;;;4.85;;
20954;SDS011;10636;19.390;-99.256;2022-08-27T06:51:37;5.10;;;4.70;;
20954;SDS011;10636;19.390;-99.256;2022-08-27T06:54:07;5.38;;;4.88;;
20954;SDS011;10636;19.390;-99.256;2022-08-27T06:56:38;5.10;;;4.70;;
20954;SDS011;10636;19.390;-99.256;2022-08-27T06:59:07;5.22;;;4.82;;
20954;SDS011;10636;19.390;-99.256;2022-08-27T07:01:38;5.32;;;4.85;;
20954;SDS011;10636;19.390;-99.256;2022-08-27T07:04:10;5.30;;;4.90;;
20954;SDS011;10636;19.390;-99.256;2022-08-27T07:06:40;5.13;;;4.63;;
20954;SDS011;10636;19.390;-99.256;2022-08-27T07:09:10;5.00;;;4.65;;
20954;SDS011;10636;19.390;-99.256;2022-08-27T07:11:39;5.20;;;4.70;;
20954;SDS011;10636;19.390;-99.256;2022-08-27T07:14:07;4.88;;;4.47;;
20954;SDS011;10636;19.390;-99.256;2022-08-27T07:16:35;5.10;;;4.60;;
20954;SDS011;10636;19.390;-99.256;2022-08-27T07:19:05;5.20;;;4.60;;
20954;SDS011;10636;19.390;-99.256;2022-08-27T07:21:33;5.43;;;4.93;;
20954;SDS011;10636;19.390;-99.256;2022-08-27T07:24:03;5.15;;;4.75;;
20954;SDS011;10636;19.390;-99.256;2022-08-27T07:26:36;5.30;;;4.70;;
20954;SDS011;10636;19.390;-99.256;2022-08-27T07:29:06;5.07;;;4.68;;
20954;SDS011;10636;19.390;-99.256;2022-08-27T07:31:36;5.47;;;4.90;;
20954;SDS011;10636;19.390;-99.256;2022-08-27T07:34:05;5.55;;;5.05;;
20954;SDS011;10636;19.390;-99.256;2022-08-27T07:36:33;5.07;;;4.68;;
20954;SDS011;10636;19.390;-99.256;2022-08-27T07:39:03;5.38;;;4.88;;
20954;SDS011;10636;19.390;-99.256;2022-08-27T07:41:31;5.70;;;4.63;;
20954;SDS011;10636;19.390;-99.256;2022-08-27T07:44:24;6.07;;;4.50;;
20954;SDS011;10636;19.390;-99.256;2022-08-27T07:46:52;4.88;;;4.47;;
20954;SDS011;10636;19.390;-99.256;2022-08-27T07:49:23;5.00;;;4.50;;
20954;SDS011;10636;19.390;-99.256;2022-08-27T07:51:51;6.45;;;4.90;;
20954;SDS011;10636;19.390;-99.256;2022-08-27T07:54:20;5.35;;;4.85;;
20954;SDS011;10636;19.390;-99.256;2022-08-27T07:56:49;5.30;;;4.80;;
20954;SDS011;10636;19.390;-99.256;2022-08-27T07:59:18;5.18;;;4.47;;
20954;SDS011;10636;19.390;-99.256;2022-08-27T08:01:48;4.93;;;4.60;;
20954;SDS011;10636;19.390;-99.256;2022-08-27T08:04:16;4.80;;;4.40;;
20954;SDS011;10636;19.390;-99.256;2022-08-27T08:06:45;4.90;;;4.40;;
20954;SDS011;10636;19.390;-99.256;2022-08-27T08:09:13;5.05;;;4.65;;
20954;SDS011;10636;19.390;-99.256;2022-08-27T08:11:42;4.97;;;4.53;;
20954;SDS011;10636;19.390;-99.256;2022-08-27T08:14:10;4.97;;;4.57;;
20954;SDS011;10636;19.390;-99.256;2022-08-27T08:16:39;5.78;;;5.10;;
20954;SDS011;10636;19.390;-99.256;2022-08-27T08:19:09;5.00;;;4.50;;
20954;SDS011;10636;19.390;-99.256;2022-08-27T08:21:37;5.50;;;5.00;;
20954;SDS011;10636;19.390;-99.256;2022-08-27T08:24:06;4.90;;;4.50;;
20954;SDS011;10636;19.390;-99.256;2022-08-27T08:26:34;5.75;;;5.22;;
20954;SDS011;10636;19.390;-99.256;2022-08-27T08:29:03;5.80;;;5.25;;
20954;SDS011;10636;19.390;-99.256;2022-08-27T08:31:31;5.70;;;5.20;;
20954;SDS011;10636;19.390;-99.256;2022-08-27T08:33:59;5.82;;;5.30;;
20954;SDS011;10636;19.390;-99.256;2022-08-27T08:36:29;5.72;;;5.13;;
20954;SDS011;10636;19.390;-99.256;2022-08-27T08:38:58;5.60;;;5.10;;
20954;SDS011;10636;19.390;-99.256;2022-08-27T08:41:36;5.97;;;5.38;;
20954;SDS011;10636;19.390;-99.256;2022-08-27T08:44:15;5.72;;;5.00;;
20954;SDS011;10636;19.390;-99.256;2022-08-27T08:46:52;5.47;;;4.78;;
20954;SDS011;10636;19.390;-99.256;2022-08-27T08:49:28;5.50;;;5.00;;
20954;SDS011;10636;19.390;-99.256;2022-08-27T08:52:09;5.15;;;4.65;;
20954;SDS011;10636;19.390;-99.256;2022-08-27T08:54:45;5.18;;;4.72;;
20954;SDS011;10636;19.390;-99.256;2022-08-27T08:57:17;5.28;;;4.78;;
20954;SDS011;10636;19.390;-99.256;2022-08-27T08:59:52;5.40;;;4.90;;
20954;SDS011;10636;19.390;-99.256;2022-08-27T09:02:26;5.20;;;4.80;;
20954;SDS011;10636;19.390;-99.256;2022-08-27T09:04:55;5.78;;;4.50;;
20954;SDS011;10636;19.390;-99.256;2022-08-27T09:07:31;4.93;;;4.50;;
20954;SDS011;10636;19.390;-99.256;2022-08-27T09:10:09;5.10;;;4.60;;
20954;SDS011;10636;19.390;-99.256;2022-08-27T09:12:40;5.15;;;4.75;;
20954;SDS011;10636;19.390;-99.256;2022-08-27T09:15:11;4.70;;;4.30;;
20954;SDS011;10636;19.390;-99.256;2022-08-27T09:17:42;5.07;;;4.65;;
20954;SDS011;10636;19.390;-99.256;2022-08-27T09:20:12;5.10;;;4.70;;
20954;SDS011;10636;19.390;-99.256;2022-08-27T09:22:49;5.50;;;5.10;;
20954;SDS011;10636;19.390;-99.256;2022-08-27T09:25:24;5.18;;;4.78;;
20954;SDS011;10636;19.390;-99.256;2022-08-27T09:27:59;4.70;;;4.30;;
20954;SDS011;10636;19.390;-99.256;2022-08-27T09:30:30;4.95;;;4.55;;
20954;SDS011;10636;19.390;-99.256;2022-08-27T09:33:07;4.78;;;4.38;;
20954;SDS011;10636;19.390;-99.256;2022-08-27T09:35:40;4.80;;;4.43;;
20954;SDS011;10636;19.390;-99.256;2022-08-27T09:38:11;4.72;;;4.40;;
20954;SDS011;10636;19.390;-99.256;2022-08-27T09:40:51;4.72;;;4.32;;
20954;SDS011;10636;19.390;-99.256;2022-08-27T09:43:22;5.13;;;4.72;;
20954;SDS011;10636;19.390;-99.256;2022-08-27T09:45:54;4.68;;;4.28;;
20954;SDS011;10636;19.390;-99.256;2022-08-27T09:48:25;4.82;;;4.43;;
20954;SDS011;10636;19.390;-99.256;2022-08-27T09:50:55;4.50;;;4.20;;
20954;SDS011;10636;19.390;-99.256;2022-08-27T09:53:28;4.65;;;4.25;;
20954;SDS011;10636;19.390;-99.256;2022-08-27T09:56:02;4.93;;;4.53;;
20954;SDS011;10636;19.390;-99.256;2022-08-27T09:58:34;4.55;;;4.25;;
20954;SDS011;10636;19.390;-99.256;2022-08-27T10:01:18;4.82;;;4.43;;
20954;SDS011;10636;19.390;-99.256;2022-08-27T10:03:49;4.80;;;4.40;;
20954;SDS011;10636;19.390;-99.256;2022-08-27T10:06:24;4.93;;;4.53;;
20954;SDS011;10636;19.390;-99.256;2022-08-27T10:08:57;4.85;;;4.35;;
20954;SDS011;10636;19.390;-99.256;2022-08-27T10:11:29;4.85;;;4.45;;
20954;SDS011;10636;19.390;-99.256;2022-08-27T10:14:02;4.65;;;4.25;;
20954;SDS011;10636;19.390;-99.256;2022-08-27T10:16:47;5.13;;;4.63;;
20954;SDS011;10636;19.390;-99.256;2022-08-27T10:19:28;4.40;;;4.10;;
20954;SDS011;10636;19.390;-99.256;2022-08-27T10:22:12;4.80;;;4.40;;
20954;SDS011;10636;19.390;-99.256;2022-08-27T10:24:54;4.95;;;4.55;;
20954;SDS011;10636;19.390;-99.256;2022-08-27T10:27:31;4.70;;;4.35;;
20954;SDS011;10636;19.390;-99.256;2022-08-27T10:30:06;4.82;;;4.43;;
20954;SDS011;10636;19.390;-99.256;2022-08-27T10:32:43;4.50;;;4.20;;
20954;SDS011;10636;19.390;-99.256;2022-08-27T10:35:20;4.55;;;4.15;;
20954;SDS011;10636;19.390;-99.256;2022-08-27T10:37:53;4.30;;;4.00;;
20954;SDS011;10636;19.390;-99.256;2022-08-27T10:40:35;4.82;;;4.43;;
20954;SDS011;10636;19.390;-99.256;2022-08-27T10:43:13;4.75;;;4.40;;
20954;SDS011;10636;19.390;-99.256;2022-08-27T10:46:01;4.53;;;4.22;;
20954;SDS011;10636;19.390;-99.256;2022-08-27T10:48:36;4.60;;;4.30;;
20954;SDS011;10636;19.390;-99.256;2022-08-27T10:51:08;4.53;;;4.13;;
20954;SDS011;10636;19.390;-99.256;2022-08-27T10:53:41;4.70;;;3.97;;
20954;SDS011;10636;19.390;-99.256;2022-08-27T10:56:16;4.68;;;4.38;;
20954;SDS011;10636;19.390;-99.256;2022-08-27T10:58:59;4.70;;;4.40;;
20954;SDS011;10636;19.390;-99.256;2022-08-27T11:01:36;4.50;;;4.10;;
20954;SDS011;10636;19.390;-99.256;2022-08-27T11:04:12;4.28;;;3.88;;
20954;SDS011;10636;19.390;-99.256;2022-08-27T11:06:45;4.28;;;3.97;;
20954;SDS011;10636;19.390;-99.256;2022-08-27T11:09:24;4.30;;;4.00;;
20954;SDS011;10636;19.390;-99.256;2022-08-27T11:12:04;4.63;;;4.32;;
20954;SDS011;10636;19.390;-99.256;2022-08-27T11:14:36;3.97;;;3.67;;
20954;SDS011;10636;19.390;-99.256;2022-08-27T11:17:11;4.28;;;3.97;;
20954;SDS011;10636;19.390;-99.256;2022-08-27T11:19:43;4.50;;;4.20;;
20954;SDS011;10636;19.390;-99.256;2022-08-27T11:22:21;4.30;;;4.00;;
20954;SDS011;10636;19.390;-99.256;2022-08-27T11:24:55;4.32;;;4.00;;
20954;SDS011;10636;19.390;-99.256;2022-08-27T11:27:31;4.40;;;4.00;;
20954;SDS011;10636;19.390;-99.256;2022-08-27T11:30:02;4.30;;;4.00;;
20954;SDS011;10636;19.390;-99.256;2022-08-27T11:32:36;4.22;;;3.92;;
20954;SDS011;10636;19.390;-99.256;2022-08-27T11:35:16;4.38;;;3.97;;
20954;SDS011;10636;19.390;-99.256;2022-08-27T11:40:48;4.13;;;3.83;;
20954;SDS011;10636;19.390;-99.256;2022-08-27T11:43:28;4.30;;;4.00;;
20954;SDS011;10636;19.390;-99.256;2022-08-27T11:45:59;4.32;;;3.92;;
20954;SDS011;10636;19.390;-99.256;2022-08-27T11:48:29;4.18;;;3.78;;
20954;SDS011;10636;19.390;-99.256;2022-08-27T11:51:07;4.15;;;3.85;;
20954;SDS011;10636;19.390;-99.256;2022-08-27T11:53:39;4.50;;;4.10;;
20954;SDS011;10636;19.390;-99.256;2022-08-27T11:56:10;4.30;;;4.00;;
20954;SDS011;10636;19.390;-99.256;2022-08-27T11:58:42;4.35;;;3.95;;
20954;SDS011;10636;19.390;-99.256;2022-08-27T12:01:14;3.85;;;3.55;;
20954;SDS011;10636;19.390;-99.256;2022-08-27T12:03:58;4.30;;;3.90;;
20954;SDS011;10636;19.390;-99.256;2022-08-27T12:06:38;4.10;;;3.75;;
20954;SDS011;10636;19.390;-99.256;2022-08-27T12:09:12;4.40;;;4.00;;
20954;SDS011;10636;19.390;-99.256;2022-08-27T12:11:46;4.03;;;3.72;;
20954;SDS011;10636;19.390;-99.256;2022-08-27T12:14:30;4.00;;;3.70;;
20954;SDS011;10636;19.390;-99.256;2022-08-27T12:17:11;4.50;;;4.10;;
20954;SDS011;10636;19.390;-99.256;2022-08-27T12:19:54;4.60;;;4.30;;
20954;SDS011;10636;19.390;-99.256;2022-08-27T12:25:58;4.53;;;4.22;;
20954;SDS011;10636;19.390;-99.256;2022-08-27T12:28:40;4.45;;;4.05;;
20954;SDS011;10636;19.390;-99.256;2022-08-27T12:31:10;4.68;;;4.28;;
20954;SDS011;10636;19.390;-99.256;2022-08-27T12:33:46;4.30;;;3.90;;
20954;SDS011;10636;19.390;-99.256;2022-08-27T12:36:18;4.65;;;4.25;;
20954;SDS011;10636;19.390;-99.256;2022-08-27T12:38:51;4.80;;;4.00;;
20954;SDS011;10636;19.390;-99.256;2022-08-27T12:41:25;4.40;;;4.10;;
20954;SDS011;10636;19.390;-99.256;2022-08-27T12:44:02;4.63;;;4.22;;
20954;SDS011;10636;19.390;-99.256;2022-08-27T12:46:34;4.57;;;4.20;;
20954;SDS011;10636;19.390;-99.256;2022-08-27T12:49:11;4.35;;;4.05;;
20954;SDS011;10636;19.390;-99.256;2022-08-27T12:51:44;4.07;;;3.78;;
20954;SDS011;10636;19.390;-99.256;2022-08-27T12:54:18;4.65;;;4.22;;
20954;SDS011;10636;19.390;-99.256;2022-08-27T12:56:56;5.65;;;5.15;;
20954;SDS011;10636;19.390;-99.256;2022-08-27T12:59:34;5.60;;;4.90;;
20954;SDS011;10636;19.390;-99.256;2022-08-27T13:02:19;5.20;;;4.72;;
20954;SDS011;10636;19.390;-99.256;2022-08-27T13:04:59;5.60;;;5.10;;
20954;SDS011;10636;19.390;-99.256;2022-08-27T13:07:30;5.18;;;4.78;;
20954;SDS011;10636;19.390;-99.256;2022-08-27T13:10:08;5.57;;;5.07;;
20954;SDS011;10636;19.390;-99.256;2022-08-27T13:12:38;5.85;;;5.30;;
20954;SDS011;10636;19.390;-99.256;2022-08-27T13:15:08;6.40;;;5.90;;
20954;SDS011;10636;19.390;-99.256;2022-08-27T13:17:41;6.55;;;5.90;;
20954;SDS011;10636;19.390;-99.256;2022-08-27T13:20:12;11.25;;;10.05;;
20954;SDS011;10636;19.390;-99.256;2022-08-27T13:22:43;11.20;;;10.10;;
20954;SDS011;10636;19.390;-99.256;2022-08-27T13:25:22;12.90;;;11.73;;
20954;SDS011;10636;19.390;-99.256;2022-08-27T13:27:54;12.85;;;11.65;;
20954;SDS011;10636;19.390;-99.256;2022-08-27T13:30:27;12.75;;;11.65;;
20954;SDS011;10636;19.390;-99.256;2022-08-27T13:32:59;11.52;;;10.35;;
20954;SDS011;10636;19.390;-99.256;2022-08-27T13:35:28;11.68;;;10.68;;
20954;SDS011;10636;19.390;-99.256;2022-08-27T13:37:57;12.38;;;11.38;;
20954;SDS011;10636;19.390;-99.256;2022-08-27T13:40:28;12.18;;;11.10;;
20954;SDS011;10636;19.390;-99.256;2022-08-27T13:43:01;12.60;;;11.40;;
20954;SDS011;10636;19.390;-99.256;2022-08-27T13:45:32;11.45;;;10.35;;
20954;SDS011;10636;19.390;-99.256;2022-08-27T13:48:03;12.00;;;10.80;;
20954;SDS011;10636;19.390;-99.256;2022-08-27T13:50:33;11.60;;;10.40;;
20954;SDS011;10636;19.390;-99.256;2022-08-27T13:53:04;11.60;;;10.45;;
20954;SDS011;10636;19.390;-99.256;2022-08-27T13:55:51;12.15;;;10.52;;
20954;SDS011;10636;19.390;-99.256;2022-08-27T13:58:23;12.50;;;11.20;;
20954;SDS011;10636;19.390;-99.256;2022-08-27T14:00:53;12.05;;;10.50;;
20954;SDS011;10636;19.390;-99.256;2022-08-27T14:03:35;11.90;;;10.80;;
20954;SDS011;10636;19.390;-99.256;2022-08-27T14:06:21;12.15;;;10.90;;
20954;SDS011;10636;19.390;-99.256;2022-08-27T14:08:51;11.98;;;10.77;;
20954;SDS011;10636;19.390;-99.256;2022-08-27T14:11:21;12.93;;;10.00;;
20954;SDS011;10636;19.390;-99.256;2022-08-27T14:13:52;12.05;;;10.45;;
20954;SDS011;10636;19.390;-99.256;2022-08-27T14:16:24;10.85;;;9.82;;
20954;SDS011;10636;19.390;-99.256;2022-08-27T14:19:02;11.95;;;10.95;;
20954;SDS011;10636;19.390;-99.256;2022-08-27T14:21:34;11.85;;;10.75;;
20954;SDS011;10636;19.390;-99.256;2022-08-27T14:24:04;11.52;;;10.52;;
20954;SDS011;10636;19.390;-99.256;2022-08-27T14:26:33;11.98;;;10.77;;
20954;SDS011;10636;19.390;-99.256;2022-08-27T14:29:02;12.38;;;11.15;;
20954;SDS011;10636;19.390;-99.256;2022-08-27T14:31:30;14.07;;;11.57;;
20954;SDS011;10636;19.390;-99.256;2022-08-27T14:34:00;12.25;;;11.15;;
20954;SDS011;10636;19.390;-99.256;2022-08-27T14:36:30;11.45;;;10.45;;
20954;SDS011;10636;19.390;-99.256;2022-08-27T14:39:03;12.27;;;11.18;;
20954;SDS011;10636;19.390;-99.256;2022-08-27T14:41:31;13.18;;;11.68;;
20954;SDS011;10636;19.390;-99.256;2022-08-27T14:44:00;11.82;;;10.68;;
20954;SDS011;10636;19.390;-99.256;2022-08-27T14:46:29;13.48;;;12.18;;
20954;SDS011;10636;19.390;-99.256;2022-08-27T14:49:02;13.32;;;12.13;;
20954;SDS011;10636;19.390;-99.256;2022-08-27T14:51:36;14.18;;;12.68;;